Hovedside
METAR-TAF:

METAR-TAF

Lufthavner :

Lüderitz, Namibia

breddegrad: 26-41S, lengdegrad: 015-15E, høyde over havet: 130 m

Gjeldene værobservasjon

Denne rapporten ble laget for 32 minutter siden, klokken 21:00 UTC
Vind 1 kt fra Sørøst
Temperatur 17°C
Luftfuktighet 55%
Trykk 1012 hPa

METAR: FYLZ 212100Z AUTO 14001KT //// // ////// 17/08 Q1012

Tid: 23:32 (21:32 UTC)

Varsel

Denne rapporten ble laget for 1 time og 32 minutter siden, klokken 20:00 UTC
Varsel gyldig fra 21. klokken 21 UTC til 22. klokken 06 UTC
Vind 5 kt fra Sør
Sikt 10 km eller mer
ingen skyer under 1500 m og ingen bygeskyer

TAF: FYLZ 212000Z 2121/2206 19005KT CAVOK

Værobservasjoner og værvarsel for over 4000 flyplasser (METAR- og TAF-rapporter).

Tilgjengelige stasjoner er representert av de røde og gule prikkene på kartet.

Hold musepekeren over prikken for å se navnet på stasjonen.

Klikk så for å se værobservasjoner og -varsler.

For å forandre kartet kan du klikke på den grønne knappen med svart kryss for å zoome inn, på den grønne knappen med strek for å zoome ut, eller på de grønne pilene for å se tilstøtende kart.


METAR-TAF: